sensor_id;sensor_type;location;lat;lon;timestamp;P1;durP1;ratioP1;P2;durP2;ratioP2
77748;SDS011;66938;52.084;5.228;2023-04-03T00:01:34;4.61;;;2.5;;
77748;SDS011;66938;52.084;5.228;2023-04-03T00:03:11;4.2;;;2.31;;
77748;SDS011;66938;52.084;5.228;2023-04-03T00:04:47;3.7;;;2.31;;
77748;SDS011;66938;52.084;5.228;2023-04-03T00:08:02;4.2;;;2.31;;
77748;SDS011;66938;52.084;5.228;2023-04-03T00:09:39;3.1;;;2.0;;
77748;SDS011;66938;52.084;5.228;2023-04-03T00:11:15;3.4;;;2.21;;
77748;SDS011;66938;52.084;5.228;2023-04-03T00:12:52;4.41;;;2.4;;
77748;SDS011;66938;52.084;5.228;2023-04-03T00:16:05;3.9;;;2.21;;
77748;SDS011;66938;52.084;5.228;2023-04-03T00:17:43;3.5;;;2.21;;
77748;SDS011;66938;52.084;5.228;2023-04-03T00:19:20;3.9;;;2.0;;
77748;SDS011;66938;52.084;5.228;2023-04-03T00:22:34;4.1;;;2.21;;
77748;SDS011;66938;52.084;5.228;2023-04-03T00:24:10;3.6;;;1.9;;
77748;SDS011;66938;52.084;5.228;2023-04-03T00:25:46;3.1;;;2.0;;
77748;SDS011;66938;52.084;5.228;2023-04-03T00:29:00;4.91;;;2.21;;
77748;SDS011;66938;52.084;5.228;2023-04-03T00:30:36;3.8;;;2.1;;
77748;SDS011;66938;52.084;5.228;2023-04-03T00:32:12;3.5;;;2.1;;
77748;SDS011;66938;52.084;5.228;2023-04-03T00:33:49;3.7;;;2.21;;
77748;SDS011;66938;52.084;5.228;2023-04-03T00:37:05;3.7;;;2.1;;
77748;SDS011;66938;52.084;5.228;2023-04-03T00:38:41;3.6;;;2.1;;
77748;SDS011;66938;52.084;5.228;2023-04-03T00:40:17;3.8;;;2.21;;
77748;SDS011;66938;52.084;5.228;2023-04-03T00:43:30;3.0;;;2.0;;
77748;SDS011;66938;52.084;5.228;2023-04-03T00:45:26;5.0;;;2.21;;
77748;SDS011;66938;52.084;5.228;2023-04-03T00:47:08;3.3;;;2.1;;
77748;SDS011;66938;52.084;5.228;2023-04-03T00:48:47;3.9;;;2.21;;
77748;SDS011;66938;52.084;5.228;2023-04-03T00:52:03;2.8;;;2.0;;
77748;SDS011;66938;52.084;5.228;2023-04-03T00:53:46;3.5;;;1.9;;
77748;SDS011;66938;52.084;5.228;2023-04-03T00:55:25;4.7;;;2.21;;
77748;SDS011;66938;52.084;5.228;2023-04-03T00:57:01;3.6;;;2.21;;
77748;SDS011;66938;52.084;5.228;2023-04-03T01:00:25;3.9;;;2.1;;
77748;SDS011;66938;52.084;5.228;2023-04-03T01:02:02;4.2;;;2.21;;
77748;SDS011;66938;52.084;5.228;2023-04-03T01:03:38;4.8;;;2.21;;
77748;SDS011;66938;52.084;5.228;2023-04-03T01:05:15;4.1;;;2.21;;
77748;SDS011;66938;52.084;5.228;2023-04-03T01:08:32;3.9;;;2.1;;
77748;SDS011;66938;52.084;5.228;2023-04-03T01:10:10;3.7;;;2.0;;
77748;SDS011;66938;52.084;5.228;2023-04-03T01:11:50;3.6;;;2.1;;
77748;SDS011;66938;52.084;5.228;2023-04-03T01:15:07;3.7;;;2.31;;
77748;SDS011;66938;52.084;5.228;2023-04-03T01:16:51;3.9;;;2.31;;
77748;SDS011;66938;52.084;5.228;2023-04-03T01:18:29;3.9;;;2.31;;
77748;SDS011;66938;52.084;5.228;2023-04-03T01:20:21;4.7;;;2.4;;
77748;SDS011;66938;52.084;5.228;2023-04-03T01:23:54;4.2;;;2.31;;
77748;SDS011;66938;52.084;5.228;2023-04-03T01:25:44;4.7;;;2.1;;
77748;SDS011;66938;52.084;5.228;2023-04-03T01:27:24;4.41;;;2.21;;
77748;SDS011;66938;52.084;5.228;2023-04-03T01:29:01;4.1;;;2.31;;
77748;SDS011;66938;52.084;5.228;2023-04-03T01:30:41;3.6;;;2.1;;
77748;SDS011;66938;52.084;5.228;2023-04-03T01:32:23;4.8;;;2.5;;
77748;SDS011;66938;52.084;5.228;2023-04-03T01:35:37;4.1;;;2.21;;
77748;SDS011;66938;52.084;5.228;2023-04-03T01:37:14;3.4;;;2.21;;
77748;SDS011;66938;52.084;5.228;2023-04-03T01:38:51;6.3;;;2.5;;
77748;SDS011;66938;52.084;5.228;2023-04-03T01:42:05;4.41;;;2.4;;
77748;SDS011;66938;52.084;5.228;2023-04-03T01:43:42;5.11;;;2.7;;
77748;SDS011;66938;52.084;5.228;2023-04-03T01:45:19;4.2;;;2.4;;
77748;SDS011;66938;52.084;5.228;2023-04-03T01:48:32;4.1;;;2.31;;
77748;SDS011;66938;52.084;5.228;2023-04-03T01:50:08;4.0;;;2.5;;
77748;SDS011;66938;52.084;5.228;2023-04-03T01:51:46;3.6;;;2.21;;
77748;SDS011;66938;52.084;5.228;2023-04-03T01:53:22;4.61;;;2.6;;
77748;SDS011;66938;52.084;5.228;2023-04-03T01:56:34;5.3;;;2.5;;
77748;SDS011;66938;52.084;5.228;2023-04-03T01:58:10;3.7;;;2.31;;
77748;SDS011;66938;52.084;5.228;2023-04-03T01:59:47;5.0;;;2.4;;
77748;SDS011;66938;52.084;5.228;2023-04-03T02:03:01;5.3;;;2.5;;
77748;SDS011;66938;52.084;5.228;2023-04-03T02:04:38;4.8;;;2.4;;
77748;SDS011;66938;52.084;5.228;2023-04-03T02:06:15;4.5;;;2.4;;
77748;SDS011;66938;52.084;5.228;2023-04-03T02:07:51;3.8;;;2.4;;
77748;SDS011;66938;52.084;5.228;2023-04-03T02:11:04;3.9;;;2.31;;
77748;SDS011;66938;52.084;5.228;2023-04-03T02:12:40;4.61;;;2.4;;
77748;SDS011;66938;52.084;5.228;2023-04-03T02:14:16;4.7;;;2.5;;
77748;SDS011;66938;52.084;5.228;2023-04-03T02:17:28;4.8;;;2.4;;
77748;SDS011;66938;52.084;5.228;2023-04-03T02:19:05;4.7;;;2.5;;
77748;SDS011;66938;52.084;5.228;2023-04-03T02:20:41;4.7;;;2.4;;
77748;SDS011;66938;52.084;5.228;2023-04-03T02:23:53;4.2;;;2.6;;
77748;SDS011;66938;52.084;5.228;2023-04-03T02:25:30;4.8;;;2.21;;
77748;SDS011;66938;52.084;5.228;2023-04-03T02:27:07;5.11;;;2.5;;
77748;SDS011;66938;52.084;5.228;2023-04-03T02:30:20;5.5;;;2.8;;
77748;SDS011;66938;52.084;5.228;2023-04-03T02:31:56;6.4;;;2.8;;
77748;SDS011;66938;52.084;5.228;2023-04-03T02:33:32;4.7;;;2.8;;
77748;SDS011;66938;52.084;5.228;2023-04-03T02:35:10;5.5;;;2.6;;
77748;SDS011;66938;52.084;5.228;2023-04-03T02:38:23;5.7;;;2.7;;
77748;SDS011;66938;52.084;5.228;2023-04-03T02:40:00;4.61;;;2.6;;
77748;SDS011;66938;52.084;5.228;2023-04-03T02:41:36;5.0;;;2.7;;
77748;SDS011;66938;52.084;5.228;2023-04-03T02:44:49;4.8;;;2.6;;
77748;SDS011;66938;52.084;5.228;2023-04-03T02:46:25;5.5;;;3.0;;
77748;SDS011;66938;52.084;5.228;2023-04-03T02:48:01;4.91;;;2.8;;
77748;SDS011;66938;52.084;5.228;2023-04-03T02:51:14;4.41;;;2.5;;
77748;SDS011;66938;52.084;5.228;2023-04-03T02:52:50;5.4;;;2.8;;
77748;SDS011;66938;52.084;5.228;2023-04-03T02:54:26;5.7;;;2.9;;
77748;SDS011;66938;52.084;5.228;2023-04-03T02:56:02;5.0;;;2.5;;
77748;SDS011;66938;52.084;5.228;2023-04-03T02:59:15;5.2;;;2.8;;
77748;SDS011;66938;52.084;5.228;2023-04-03T03:00:52;7.2;;;3.3;;
77748;SDS011;66938;52.084;5.228;2023-04-03T03:02:28;4.61;;;2.8;;
77748;SDS011;66938;52.084;5.228;2023-04-03T03:05:40;5.8;;;2.9;;
77748;SDS011;66938;52.084;5.228;2023-04-03T03:07:16;4.91;;;2.8;;
77748;SDS011;66938;52.084;5.228;2023-04-03T03:08:53;4.91;;;2.7;;
77748;SDS011;66938;52.084;5.228;2023-04-03T03:12:05;4.61;;;2.7;;
77748;SDS011;66938;52.084;5.228;2023-04-03T03:13:41;5.2;;;2.8;;
77748;SDS011;66938;52.084;5.228;2023-04-03T03:15:18;5.6;;;2.6;;
77748;SDS011;66938;52.084;5.228;2023-04-03T03:16:54;5.0;;;2.7;;
77748;SDS011;66938;52.084;5.228;2023-04-03T03:20:07;6.2;;;2.7;;
77748;SDS011;66938;52.084;5.228;2023-04-03T03:21:43;5.7;;;2.8;;
77748;SDS011;66938;52.084;5.228;2023-04-03T03:23:20;5.8;;;3.0;;
77748;SDS011;66938;52.084;5.228;2023-04-03T03:26:36;5.6;;;2.9;;
77748;SDS011;66938;52.084;5.228;2023-04-03T03:28:13;4.8;;;2.8;;
77748;SDS011;66938;52.084;5.228;2023-04-03T03:29:49;6.4;;;2.9;;
77748;SDS011;66938;52.084;5.228;2023-04-03T03:33:02;5.5;;;2.9;;
77748;SDS011;66938;52.084;5.228;2023-04-03T03:34:39;4.5;;;2.7;;
77748;SDS011;66938;52.084;5.228;2023-04-03T03:36:15;5.7;;;3.2;;
77748;SDS011;66938;52.084;5.228;2023-04-03T03:37:51;5.5;;;3.0;;
77748;SDS011;66938;52.084;5.228;2023-04-03T03:41:04;5.7;;;3.3;;
77748;SDS011;66938;52.084;5.228;2023-04-03T03:42:40;6.0;;;3.2;;
77748;SDS011;66938;52.084;5.228;2023-04-03T03:44:16;6.2;;;3.6;;
77748;SDS011;66938;52.084;5.228;2023-04-03T03:47:30;6.0;;;3.3;;
77748;SDS011;66938;52.084;5.228;2023-04-03T03:49:06;5.6;;;3.1;;
77748;SDS011;66938;52.084;5.228;2023-04-03T03:50:42;7.1;;;3.3;;
77748;SDS011;66938;52.084;5.228;2023-04-03T03:53:54;5.6;;;3.2;;
77748;SDS011;66938;52.084;5.228;2023-04-03T03:55:30;6.1;;;3.1;;
77748;SDS011;66938;52.084;5.228;2023-04-03T03:57:07;5.6;;;3.1;;
77748;SDS011;66938;52.084;5.228;2023-04-03T03:58:44;5.5;;;3.3;;
77748;SDS011;66938;52.084;5.228;2023-04-03T04:01:56;5.4;;;3.2;;
77748;SDS011;66938;52.084;5.228;2023-04-03T04:03:33;5.11;;;3.1;;
77748;SDS011;66938;52.084;5.228;2023-04-03T04:05:09;6.0;;;3.4;;
77748;SDS011;66938;52.084;5.228;2023-04-03T04:08:21;6.7;;;3.7;;
77748;SDS011;66938;52.084;5.228;2023-04-03T04:09:57;7.3;;;3.3;;
77748;SDS011;66938;52.084;5.228;2023-04-03T04:11:34;5.9;;;3.1;;
77748;SDS011;66938;52.084;5.228;2023-04-03T04:14:46;6.2;;;3.6;;
77748;SDS011;66938;52.084;5.228;2023-04-03T04:16:22;6.7;;;3.3;;
77748;SDS011;66938;52.084;5.228;2023-04-03T04:17:59;6.2;;;3.5;;
77748;SDS011;66938;52.084;5.228;2023-04-03T04:21:11;4.8;;;3.1;;
77748;SDS011;66938;52.084;5.228;2023-04-03T04:22:47;6.9;;;3.5;;
77748;SDS011;66938;52.084;5.228;2023-04-03T04:24:23;5.4;;;3.3;;
77748;SDS011;66938;52.084;5.228;2023-04-03T04:26:00;5.0;;;3.2;;
77748;SDS011;66938;52.084;5.228;2023-04-03T04:29:13;5.9;;;3.4;;
77748;SDS011;66938;52.084;5.228;2023-04-03T04:30:49;6.2;;;3.4;;
77748;SDS011;66938;52.084;5.228;2023-04-03T04:32:25;6.1;;;3.6;;
77748;SDS011;66938;52.084;5.228;2023-04-03T04:35:38;5.6;;;3.2;;
77748;SDS011;66938;52.084;5.228;2023-04-03T04:37:14;9.5;;;4.0;;
77748;SDS011;66938;52.084;5.228;2023-04-03T04:38:50;6.2;;;3.5;;
77748;SDS011;66938;52.084;5.228;2023-04-03T04:42:04;7.2;;;3.7;;
77748;SDS011;66938;52.084;5.228;2023-04-03T04:43:40;6.9;;;3.8;;
77748;SDS011;66938;52.084;5.228;2023-04-03T04:45:16;6.7;;;3.9;;
77748;SDS011;66938;52.084;5.228;2023-04-03T04:46:52;6.0;;;3.8;;
77748;SDS011;66938;52.084;5.228;2023-04-03T04:50:05;7.8;;;3.8;;
77748;SDS011;66938;52.084;5.228;2023-04-03T04:51:42;6.2;;;3.8;;
77748;SDS011;66938;52.084;5.228;2023-04-03T04:53:18;5.9;;;3.8;;
77748;SDS011;66938;52.084;5.228;2023-04-03T04:56:30;7.2;;;3.8;;
77748;SDS011;66938;52.084;5.228;2023-04-03T04:58:06;6.5;;;3.7;;
77748;SDS011;66938;52.084;5.228;2023-04-03T04:59:43;6.4;;;3.4;;
77748;SDS011;66938;52.084;5.228;2023-04-03T05:02:55;7.1;;;3.8;;
77748;SDS011;66938;52.084;5.228;2023-04-03T05:04:31;6.4;;;3.7;;
77748;SDS011;66938;52.084;5.228;2023-04-03T05:06:08;6.6;;;4.0;;
77748;SDS011;66938;52.084;5.228;2023-04-03T05:07:44;6.5;;;3.7;;
77748;SDS011;66938;52.084;5.228;2023-04-03T05:10:56;8.2;;;3.7;;
77748;SDS011;66938;52.084;5.228;2023-04-03T05:12:32;7.3;;;3.9;;
77748;SDS011;66938;52.084;5.228;2023-04-03T05:14:09;6.6;;;3.5;;
77748;SDS011;66938;52.084;5.228;2023-04-03T05:17:22;7.2;;;3.9;;
77748;SDS011;66938;52.084;5.228;2023-04-03T05:18:58;8.31;;;4.0;;
77748;SDS011;66938;52.084;5.228;2023-04-03T05:20:34;7.4;;;3.8;;
77748;SDS011;66938;52.084;5.228;2023-04-03T05:23:47;5.7;;;3.8;;
77748;SDS011;66938;52.084;5.228;2023-04-03T05:25:23;6.6;;;3.6;;
77748;SDS011;66938;52.084;5.228;2023-04-03T05:26:59;8.2;;;3.8;;
77748;SDS011;66938;52.084;5.228;2023-04-03T05:30:12;7.3;;;3.9;;
77748;SDS011;66938;52.084;5.228;2023-04-03T05:31:49;7.5;;;4.0;;
77748;SDS011;66938;52.084;5.228;2023-04-03T05:33:26;7.5;;;4.3;;
77748;SDS011;66938;52.084;5.228;2023-04-03T05:35:02;7.1;;;4.1;;
77748;SDS011;66938;52.084;5.228;2023-04-03T05:38:16;6.9;;;4.0;;
77748;SDS011;66938;52.084;5.228;2023-04-03T05:39:52;7.2;;;4.1;;
77748;SDS011;66938;52.084;5.228;2023-04-03T05:41:28;6.6;;;4.0;;
77748;SDS011;66938;52.084;5.228;2023-04-03T05:44:40;7.4;;;4.41;;
77748;SDS011;66938;52.084;5.228;2023-04-03T05:46:17;7.5;;;4.3;;
77748;SDS011;66938;52.084;5.228;2023-04-03T05:47:55;8.1;;;4.2;;
77748;SDS011;66938;52.084;5.228;2023-04-03T05:51:11;7.0;;;4.3;;
77748;SDS011;66938;52.084;5.228;2023-04-03T05:52:50;7.5;;;3.9;;
77748;SDS011;66938;52.084;5.228;2023-04-03T05:54:31;7.8;;;4.61;;
77748;SDS011;66938;52.084;5.228;2023-04-03T05:56:07;7.1;;;4.0;;
77748;SDS011;66938;52.084;5.228;2023-04-03T05:59:20;6.1;;;3.8;;
77748;SDS011;66938;52.084;5.228;2023-04-03T06:00:56;7.7;;;4.2;;
77748;SDS011;66938;52.084;5.228;2023-04-03T06:02:33;7.9;;;4.0;;
77748;SDS011;66938;52.084;5.228;2023-04-03T06:05:46;7.1;;;4.0;;
77748;SDS011;66938;52.084;5.228;2023-04-03T06:07:23;7.4;;;4.0;;
77748;SDS011;66938;52.084;5.228;2023-04-03T06:09:00;8.0;;;4.2;;
77748;SDS011;66938;52.084;5.228;2023-04-03T06:10:36;7.8;;;4.1;;
77748;SDS011;66938;52.084;5.228;2023-04-03T06:13:49;8.9;;;4.0;;
77748;SDS011;66938;52.084;5.228;2023-04-03T06:15:26;6.2;;;3.7;;
77748;SDS011;66938;52.084;5.228;2023-04-03T06:17:02;7.9;;;4.0;;
77748;SDS011;66938;52.084;5.228;2023-04-03T06:25:13;7.6;;;3.6;;
77748;SDS011;66938;52.084;5.228;2023-04-03T06:28:26;6.5;;;3.5;;
77748;SDS011;66938;52.084;5.228;2023-04-03T06:30:02;7.1;;;3.8;;
77748;SDS011;66938;52.084;5.228;2023-04-03T06:31:38;7.9;;;3.6;;
77748;SDS011;66938;52.084;5.228;2023-04-03T06:34:50;6.0;;;3.6;;
77748;SDS011;66938;52.084;5.228;2023-04-03T06:36:26;7.9;;;3.6;;
77748;SDS011;66938;52.084;5.228;2023-04-03T06:38:02;7.0;;;3.4;;
77748;SDS011;66938;52.084;5.228;2023-04-03T06:41:15;6.6;;;3.6;;
77748;SDS011;66938;52.084;5.228;2023-04-03T06:42:52;7.6;;;3.3;;
77748;SDS011;66938;52.084;5.228;2023-04-03T06:44:28;6.5;;;3.0;;
77748;SDS011;66938;52.084;5.228;2023-04-03T06:46:04;6.9;;;3.2;;
77748;SDS011;66938;52.084;5.228;2023-04-03T06:49:16;5.9;;;3.1;;
77748;SDS011;66938;52.084;5.228;2023-04-03T06:50:52;8.0;;;3.7;;
77748;SDS011;66938;52.084;5.228;2023-04-03T06:52:29;6.5;;;3.3;;
77748;SDS011;66938;52.084;5.228;2023-04-03T06:55:42;7.3;;;3.2;;
77748;SDS011;66938;52.084;5.228;2023-04-03T06:57:18;5.9;;;3.2;;
77748;SDS011;66938;52.084;5.228;2023-04-03T06:58:54;6.9;;;3.4;;
77748;SDS011;66938;52.084;5.228;2023-04-03T07:02:08;6.7;;;3.3;;
77748;SDS011;66938;52.084;5.228;2023-04-03T07:03:47;6.3;;;3.1;;
77748;SDS011;66938;52.084;5.228;2023-04-03T07:05:24;7.0;;;3.3;;
77748;SDS011;66938;52.084;5.228;2023-04-03T07:07:01;7.5;;;3.5;;
77748;SDS011;66938;52.084;5.228;2023-04-03T07:10:14;5.8;;;3.0;;
77748;SDS011;66938;52.084;5.228;2023-04-03T07:11:50;5.3;;;3.0;;
77748;SDS011;66938;52.084;5.228;2023-04-03T07:13:27;7.1;;;3.2;;
77748;SDS011;66938;52.084;5.228;2023-04-03T07:16:40;6.8;;;3.1;;
77748;SDS011;66938;52.084;5.228;2023-04-03T07:18:16;7.3;;;3.5;;
77748;SDS011;66938;52.084;5.228;2023-04-03T07:19:53;7.4;;;3.3;;
77748;SDS011;66938;52.084;5.228;2023-04-03T07:23:05;7.9;;;3.4;;
77748;SDS011;66938;52.084;5.228;2023-04-03T07:24:41;7.4;;;3.4;;
77748;SDS011;66938;52.084;5.228;2023-04-03T07:26:18;6.0;;;3.0;;
77748;SDS011;66938;52.084;5.228;2023-04-03T07:27:54;7.1;;;3.2;;
77748;SDS011;66938;52.084;5.228;2023-04-03T07:31:08;5.4;;;2.8;;
77748;SDS011;66938;52.084;5.228;2023-04-03T07:32:47;6.0;;;2.9;;
77748;SDS011;66938;52.084;5.228;2023-04-03T07:34:23;5.8;;;3.1;;
77748;SDS011;66938;52.084;5.228;2023-04-03T07:37:36;6.3;;;3.1;;
77748;SDS011;66938;52.084;5.228;2023-04-03T07:39:13;6.5;;;3.0;;
77748;SDS011;66938;52.084;5.228;2023-04-03T07:40:49;5.9;;;2.8;;
77748;SDS011;66938;52.084;5.228;2023-04-03T07:44:02;6.6;;;3.1;;
77748;SDS011;66938;52.084;5.228;2023-04-03T07:45:40;5.7;;;2.9;;
77748;SDS011;66938;52.084;5.228;2023-04-03T07:47:18;5.5;;;2.8;;
77748;SDS011;66938;52.084;5.228;2023-04-03T07:48:54;5.7;;;2.8;;
77748;SDS011;66938;52.084;5.228;2023-04-03T07:52:07;6.6;;;2.9;;
77748;SDS011;66938;52.084;5.228;2023-04-03T07:53:43;5.7;;;2.7;;
77748;SDS011;66938;52.084;5.228;2023-04-03T07:55:19;5.3;;;2.8;;
77748;SDS011;66938;52.084;5.228;2023-04-03T07:58:31;6.2;;;3.0;;
77748;SDS011;66938;52.084;5.228;2023-04-03T08:00:08;8.31;;;2.8;;
77748;SDS011;66938;52.084;5.228;2023-04-03T08:01:44;5.0;;;2.7;;
77748;SDS011;66938;52.084;5.228;2023-04-03T08:04:57;5.2;;;2.31;;
77748;SDS011;66938;52.084;5.228;2023-04-03T08:06:33;5.7;;;2.5;;
77748;SDS011;66938;52.084;5.228;2023-04-03T08:08:09;6.0;;;2.5;;
77748;SDS011;66938;52.084;5.228;2023-04-03T08:09:47;5.6;;;2.31;;
77748;SDS011;66938;52.084;5.228;2023-04-03T08:12:59;5.9;;;2.7;;
77748;SDS011;66938;52.084;5.228;2023-04-03T08:14:36;5.3;;;2.4;;
77748;SDS011;66938;52.084;5.228;2023-04-03T08:16:14;5.5;;;2.6;;
77748;SDS011;66938;52.084;5.228;2023-04-03T08:19:30;6.5;;;2.7;;
77748;SDS011;66938;52.084;5.228;2023-04-03T08:21:07;3.9;;;2.31;;
77748;SDS011;66938;52.084;5.228;2023-04-03T08:22:44;5.7;;;2.5;;
77748;SDS011;66938;52.084;5.228;2023-04-03T08:25:56;6.5;;;2.8;;
77748;SDS011;66938;52.084;5.228;2023-04-03T08:27:32;6.2;;;2.4;;
77748;SDS011;66938;52.084;5.228;2023-04-03T08:29:09;6.8;;;2.7;;
77748;SDS011;66938;52.084;5.228;2023-04-03T08:30:46;5.6;;;2.5;;
77748;SDS011;66938;52.084;5.228;2023-04-03T08:33:58;4.2;;;2.31;;
77748;SDS011;66938;52.084;5.228;2023-04-03T08:35:37;5.5;;;2.5;;
77748;SDS011;66938;52.084;5.228;2023-04-03T08:37:14;4.7;;;2.31;;
77748;SDS011;66938;52.084;5.228;2023-04-03T08:40:28;4.8;;;2.5;;
77748;SDS011;66938;52.084;5.228;2023-04-03T08:42:05;4.41;;;2.21;;
77748;SDS011;66938;52.084;5.228;2023-04-03T08:43:56;5.7;;;2.7;;
77748;SDS011;66938;52.084;5.228;2023-04-03T08:45:41;5.6;;;2.5;;
77748;SDS011;66938;52.084;5.228;2023-04-03T08:49:04;4.41;;;2.0;;
77748;SDS011;66938;52.084;5.228;2023-04-03T08:50:50;4.91;;;2.4;;
77748;SDS011;66938;52.084;5.228;2023-04-03T08:52:32;4.3;;;2.1;;
77748;SDS011;66938;52.084;5.228;2023-04-03T08:54:14;5.0;;;1.9;;
77748;SDS011;66938;52.084;5.228;2023-04-03T08:56:02;4.1;;;2.0;;
77748;SDS011;66938;52.084;5.228;2023-04-03T08:59:24;4.3;;;1.8;;
77748;SDS011;66938;52.084;5.228;2023-04-03T09:01:05;3.3;;;1.7;;
77748;SDS011;66938;52.084;5.228;2023-04-03T09:02:53;3.5;;;1.5;;
77748;SDS011;66938;52.084;5.228;2023-04-03T09:04:31;3.5;;;1.7;;
77748;SDS011;66938;52.084;5.228;2023-04-03T09:07:52;3.9;;;1.7;;
77748;SDS011;66938;52.084;5.228;2023-04-03T09:09:36;3.7;;;1.6;;
77748;SDS011;66938;52.084;5.228;2023-04-03T09:11:19;3.2;;;1.4;;
77748;SDS011;66938;52.084;5.228;2023-04-03T09:13:01;3.0;;;1.5;;
77748;SDS011;66938;52.084;5.228;2023-04-03T09:14:46;2.9;;;1.6;;
77748;SDS011;66938;52.084;5.228;2023-04-03T09:18:24;3.2;;;1.3;;
77748;SDS011;66938;52.084;5.228;2023-04-03T09:20:10;3.3;;;1.4;;
77748;SDS011;66938;52.084;5.228;2023-04-03T09:21:56;2.9;;;1.4;;
77748;SDS011;66938;52.084;5.228;2023-04-03T09:23:34;3.3;;;1.3;;
77748;SDS011;66938;52.084;5.228;2023-04-03T09:25:18;3.3;;;1.3;;
77748;SDS011;66938;52.084;5.228;2023-04-03T09:28:40;3.0;;;1.3;;
77748;SDS011;66938;52.084;5.228;2023-04-03T09:30:19;2.7;;;1.2;;
77748;SDS011;66938;52.084;5.228;2023-04-03T09:31:58;3.0;;;1.3;;
77748;SDS011;66938;52.084;5.228;2023-04-03T09:33:36;4.1;;;1.3;;
77748;SDS011;66938;52.084;5.228;2023-04-03T09:36:57;3.0;;;1.4;;
77748;SDS011;66938;52.084;5.228;2023-04-03T09:38:34;3.4;;;1.3;;
77748;SDS011;66938;52.084;5.228;2023-04-03T09:40:27;3.0;;;1.3;;
77748;SDS011;66938;52.084;5.228;2023-04-03T09:42:22;2.31;;;0.9;;
77748;SDS011;66938;52.084;5.228;2023-04-03T09:43:59;2.4;;;1.2;;
77748;SDS011;66938;52.084;5.228;2023-04-03T09:47:17;6.2;;;1.4;;
77748;SDS011;66938;52.084;5.228;2023-04-03T09:49:02;2.21;;;1.2;;
77748;SDS011;66938;52.084;5.228;2023-04-03T09:50:52;2.4;;;1.0;;
77748;SDS011;66938;52.084;5.228;2023-04-03T09:52:33;2.5;;;1.2;;
77748;SDS011;66938;52.084;5.228;2023-04-03T09:56:18;3.5;;;1.11;;
77748;SDS011;66938;52.084;5.228;2023-04-03T09:57:59;2.21;;;0.9;;
77748;SDS011;66938;52.084;5.228;2023-04-03T09:59:40;2.9;;;1.2;;
77748;SDS011;66938;52.084;5.228;2023-04-03T10:01:21;2.31;;;0.9;;
77748;SDS011;66938;52.084;5.228;2023-04-03T10:03:04;2.7;;;1.0;;
77748;SDS011;66938;52.084;5.228;2023-04-03T10:06:21;2.31;;;1.0;;
77748;SDS011;66938;52.084;5.228;2023-04-03T10:08:07;2.5;;;1.0;;
77748;SDS011;66938;52.084;5.228;2023-04-03T10:09:59;1.7;;;0.9;;
77748;SDS011;66938;52.084;5.228;2023-04-03T10:11:38;1.7;;;0.9;;
77748;SDS011;66938;52.084;5.228;2023-04-03T10:13:34;2.9;;;0.9;;
77748;SDS011;66938;52.084;5.228;2023-04-03T10:16:51;2.5;;;0.9;;
77748;SDS011;66938;52.084;5.228;2023-04-03T10:18:37;2.1;;;0.8;;
77748;SDS011;66938;52.084;5.228;2023-04-03T10:20:27;2.0;;;0.9;;
77748;SDS011;66938;52.084;5.228;2023-04-03T10:22:13;1.9;;;0.8;;
77748;SDS011;66938;52.084;5.228;2023-04-03T10:23:57;2.31;;;0.9;;
77748;SDS011;66938;52.084;5.228;2023-04-03T10:25:46;2.21;;;0.8;;
77748;SDS011;66938;52.084;5.228;2023-04-03T10:29:21;2.1;;;0.8;;
77748;SDS011;66938;52.084;5.228;2023-04-03T10:31:15;2.1;;;0.9;;
77748;SDS011;66938;52.084;5.228;2023-04-03T10:33:01;1.3;;;0.8;;
77748;SDS011;66938;52.084;5.228;2023-04-03T10:34:53;2.0;;;0.7;;
77748;SDS011;66938;52.084;5.228;2023-04-03T10:36:38;1.4;;;0.7;;
77748;SDS011;66938;52.084;5.228;2023-04-03T10:38:23;2.21;;;0.7;;
77748;SDS011;66938;52.084;5.228;2023-04-03T10:42:05;3.0;;;0.8;;
77748;SDS011;66938;52.084;5.228;2023-04-03T10:43:53;1.11;;;0.6;;
77748;SDS011;66938;52.084;5.228;2023-04-03T10:45:51;1.2;;;0.7;;
77748;SDS011;66938;52.084;5.228;2023-04-03T10:47:34;1.5;;;0.7;;
77748;SDS011;66938;52.084;5.228;2023-04-03T10:49:24;1.4;;;0.7;;
77748;SDS011;66938;52.084;5.228;2023-04-03T10:51:13;0.9;;;0.6;;
77748;SDS011;66938;52.084;5.228;2023-04-03T10:53:01;1.5;;;0.7;;
77748;SDS011;66938;52.084;5.228;2023-04-03T10:56:31;1.8;;;0.7;;
77748;SDS011;66938;52.084;5.228;2023-04-03T10:58:16;2.8;;;0.7;;
77748;SDS011;66938;52.084;5.228;2023-04-03T11:00:00;1.9;;;0.7;;
77748;SDS011;66938;52.084;5.228;2023-04-03T11:01:41;1.5;;;0.6;;
77748;SDS011;66938;52.084;5.228;2023-04-03T11:03:24;1.5;;;0.7;;
77748;SDS011;66938;52.084;5.228;2023-04-03T11:06:56;2.8;;;0.6;;
77748;SDS011;66938;52.084;5.228;2023-04-03T11:08:38;1.6;;;0.7;;
77748;SDS011;66938;52.084;5.228;2023-04-03T11:10:21;2.1;;;0.7;;
77748;SDS011;66938;52.084;5.228;2023-04-03T11:12:02;1.4;;;0.6;;
77748;SDS011;66938;52.084;5.228;2023-04-03T11:15:30;2.1;;;0.7;;
77748;SDS011;66938;52.084;5.228;2023-04-03T11:17:11;1.8;;;0.7;;
77748;SDS011;66938;52.084;5.228;2023-04-03T11:19:01;1.9;;;0.8;;
77748;SDS011;66938;52.084;5.228;2023-04-03T11:20:46;1.5;;;0.8;;
77748;SDS011;66938;52.084;5.228;2023-04-03T11:22:37;1.9;;;0.9;;
77748;SDS011;66938;52.084;5.228;2023-04-03T11:24:20;2.5;;;1.0;;
77748;SDS011;66938;52.084;5.228;2023-04-03T11:27:48;2.1;;;0.8;;
77748;SDS011;66938;52.084;5.228;2023-04-03T11:29:36;1.6;;;0.8;;
77748;SDS011;66938;52.084;5.228;2023-04-03T11:31:22;2.0;;;0.9;;
77748;SDS011;66938;52.084;5.228;2023-04-03T11:33:14;3.0;;;1.0;;
77748;SDS011;66938;52.084;5.228;2023-04-03T11:35:12;2.31;;;1.0;;
77748;SDS011;66938;52.084;5.228;2023-04-03T11:36:52;2.1;;;1.0;;
77748;SDS011;66938;52.084;5.228;2023-04-03T11:40:18;2.21;;;0.9;;
77748;SDS011;66938;52.084;5.228;2023-04-03T11:42:16;2.5;;;0.9;;
77748;SDS011;66938;52.084;5.228;2023-04-03T11:44:05;2.1;;;0.9;;
77748;SDS011;66938;52.084;5.228;2023-04-03T11:46:09;2.4;;;0.9;;
77748;SDS011;66938;52.084;5.228;2023-04-03T11:47:46;2.0;;;0.9;;
77748;SDS011;66938;52.084;5.228;2023-04-03T11:49:59;2.0;;;1.0;;
77748;SDS011;66938;52.084;5.228;2023-04-03T11:51:39;2.6;;;1.2;;
77748;SDS011;66938;52.084;5.228;2023-04-03T11:56:26;2.21;;;0.9;;
77748;SDS011;66938;52.084;5.228;2023-04-03T11:58:14;1.9;;;1.0;;
77748;SDS011;66938;52.084;5.228;2023-04-03T11:59:51;3.8;;;1.6;;
77748;SDS011;66938;52.084;5.228;2023-04-03T12:04:09;2.21;;;1.0;;
77748;SDS011;66938;52.084;5.228;2023-04-03T12:06:42;2.21;;;1.11;;
77748;SDS011;66938;52.084;5.228;2023-04-03T12:08:46;2.8;;;1.2;;
77748;SDS011;66938;52.084;5.228;2023-04-03T12:10:26;3.4;;;1.2;;
77748;SDS011;66938;52.084;5.228;2023-04-03T12:14:04;3.2;;;1.0;;
77748;SDS011;66938;52.084;5.228;2023-04-03T12:15:51;2.31;;;1.0;;
77748;SDS011;66938;52.084;5.228;2023-04-03T12:17:29;2.8;;;1.11;;
77748;SDS011;66938;52.084;5.228;2023-04-03T12:19:24;2.7;;;1.2;;
77748;SDS011;66938;52.084;5.228;2023-04-03T12:21:10;2.7;;;1.2;;
77748;SDS011;66938;52.084;5.228;2023-04-03T12:24:43;2.4;;;1.0;;
77748;SDS011;66938;52.084;5.228;2023-04-03T12:26:23;2.4;;;0.9;;
77748;SDS011;66938;52.084;5.228;2023-04-03T12:28:04;2.7;;;1.3;;
77748;SDS011;66938;52.084;5.228;2023-04-03T12:29:43;3.1;;;1.11;;
77748;SDS011;66938;52.084;5.228;2023-04-03T12:31:31;2.31;;;1.2;;
77748;SDS011;66938;52.084;5.228;2023-04-03T12:33:24;3.0;;;1.11;;
77748;SDS011;66938;52.084;5.228;2023-04-03T12:37:01;2.5;;;1.2;;
77748;SDS011;66938;52.084;5.228;2023-04-03T12:38:52;3.4;;;1.11;;
77748;SDS011;66938;52.084;5.228;2023-04-03T12:40:43;3.1;;;1.3;;
77748;SDS011;66938;52.084;5.228;2023-04-03T12:42:33;3.1;;;1.3;;
77748;SDS011;66938;52.084;5.228;2023-04-03T12:44:24;2.5;;;1.2;;
77748;SDS011;66938;52.084;5.228;2023-04-03T12:46:17;3.2;;;1.2;;
77748;SDS011;66938;52.084;5.228;2023-04-03T12:49:35;3.7;;;1.3;;
77748;SDS011;66938;52.084;5.228;2023-04-03T12:51:14;2.5;;;1.11;;
77748;SDS011;66938;52.084;5.228;2023-04-03T12:52:56;4.0;;;1.0;;
77748;SDS011;66938;52.084;5.228;2023-04-03T12:54:36;2.21;;;1.11;;
77748;SDS011;66938;52.084;5.228;2023-04-03T12:57:57;4.7;;;1.2;;
77748;SDS011;66938;52.084;5.228;2023-04-03T12:59:49;2.7;;;1.2;;
77748;SDS011;66938;52.084;5.228;2023-04-03T13:01:26;2.9;;;1.4;;
77748;SDS011;66938;52.084;5.228;2023-04-03T13:03:02;2.6;;;1.2;;
77748;SDS011;66938;52.084;5.228;2023-04-03T13:06:17;2.4;;;1.11;;
77748;SDS011;66938;52.084;5.228;2023-04-03T13:07:58;2.31;;;1.11;;